ENSB/LYR METAR and TAF weather

Enter ICAO airport designator
Station Type Date Time Source
ENSB METAR 2020/12/06 01:50 UTC NOAA

ENSB 060150Z 12010KT 9999 -SN FEW023 BKN049 M09/M13 Q1012 RMK WIND 1400FT 12012KT


Station Type Date Time Source
ENSB Decoded METAR 2020/12/06 01:50 UTC NOAA

Svalbard Lufthavn, Norway (ENSB) 78-15N 015-28E 29M
Dec 05, 2020 - 08:50 PM EST / 2020.12.06 0150 UTC
Wind: from the ESE (120 degrees) at 12 MPH (10 KT):0
Visibility: greater than 7 mile(s):0
Sky conditions: mostly cloudy
Weather: light snow
Temperature: 15 F (-9 C)
Windchill: 1 F (-17 C):1
Dew Point: 8 F (-13 C)
Relative Humidity: 72%
Pressure (altimeter): 29.88 in. Hg (1012 hPa)
ob: ENSB 060150Z 12010KT 9999 -SN FEW023 BKN049 M09/M13 Q1012 RMK WIND 1400FT 12012KT
cycle: 2

Station Type Date Time Source
ENSB TAF 2020/12/05 18:57 UTC NOAA

TAF ENSB 051700Z 0518/0618 12012KT 9999 FEW040
BECMG 0615/0618 14025KT SHSN BKN012
TEMPO 0615/0618 18025G35KT

Example: see airport list